createdAt,value
2023-02-19T00:00:26.447Z,3.10
2023-02-19T00:05:49.531Z,2.50
2023-02-19T00:10:53.299Z,2.90
2023-02-19T00:15:56.684Z,3.80
2023-02-19T00:20:59.443Z,3.80
2023-02-19T00:26:17.250Z,3.00
2023-02-19T00:31:25.680Z,3.60
2023-02-19T00:36:29.444Z,2.60
2023-02-19T00:41:32.759Z,3.40
2023-02-19T00:46:39.041Z,3.30
2023-02-19T00:51:41.814Z,3.90
2023-02-19T00:56:45.101Z,3.10
2023-02-19T01:01:49.828Z,3.60
2023-02-19T01:06:52.732Z,3.10
2023-02-19T01:11:55.530Z,3.20
2023-02-19T01:16:58.530Z,2.70
2023-02-19T01:22:01.268Z,2.70
2023-02-19T01:27:04.140Z,3.20
2023-02-19T01:32:07.096Z,3.20
2023-02-19T01:37:12.137Z,2.90
2023-02-19T01:42:16.981Z,3.10
2023-02-19T01:47:20.438Z,3.00
2023-02-19T01:52:26.444Z,2.80
2023-02-19T01:57:39.244Z,2.50
2023-02-19T02:02:45.183Z,2.20
2023-02-19T02:08:06.470Z,2.80
2023-02-19T02:13:09.324Z,2.90
2023-02-19T02:18:23.928Z,2.50
2023-02-19T02:23:56.455Z,2.00
2023-02-19T02:29:12.496Z,2.40
2023-02-19T02:34:21.947Z,2.50
2023-02-19T02:39:28.318Z,2.80
2023-02-19T02:44:35.792Z,2.10
2023-02-19T02:49:59.066Z,2.70
2023-02-19T02:55:05.025Z,2.10
2023-02-19T03:00:08.672Z,2.20
2023-02-19T03:05:42.617Z,1.80
2023-02-19T03:10:56.906Z,1.70
2023-02-19T03:16:24.914Z,2.20
2023-02-19T03:21:28.945Z,1.90
2023-02-19T03:26:34.212Z,1.80
2023-02-19T03:31:39.881Z,2.00
2023-02-19T03:36:46.154Z,2.20
2023-02-19T03:42:14.792Z,2.10
2023-02-19T03:47:27.319Z,1.80
2023-02-19T03:52:41.940Z,2.10
2023-02-19T03:57:51.136Z,2.30
2023-02-19T04:03:01.448Z,1.00
2023-02-19T04:08:11.316Z,2.00
2023-02-19T04:13:24.732Z,2.30
2023-02-19T04:18:33.533Z,2.40
2023-02-19T04:23:42.541Z,1.70
2023-02-19T04:28:45.390Z,1.80
2023-02-19T04:33:48.124Z,1.40
2023-02-19T04:38:50.869Z,1.70
2023-02-19T04:43:53.714Z,1.70
2023-02-19T04:48:56.587Z,2.20
2023-02-19T04:53:59.407Z,2.00
2023-02-19T04:59:02.184Z,1.60
2023-02-19T05:04:05.429Z,1.90
2023-02-19T05:09:08.870Z,1.60
2023-02-19T05:14:11.632Z,2.00
2023-02-19T05:19:14.435Z,1.80
2023-02-19T05:24:17.162Z,2.30
2023-02-19T05:29:20.011Z,2.00
2023-02-19T05:34:22.822Z,1.60
2023-02-19T05:39:25.618Z,1.90
2023-02-19T05:44:28.461Z,1.50
2023-02-19T05:49:31.198Z,2.50
2023-02-19T05:54:33.941Z,2.00
2023-02-19T05:59:36.730Z,2.10
2023-02-19T06:04:39.535Z,2.20
2023-02-19T06:09:42.513Z,2.20
2023-02-19T06:14:45.354Z,2.30
2023-02-19T06:19:48.118Z,2.00
2023-02-19T06:24:50.895Z,2.30
2023-02-19T06:29:53.779Z,2.20
2023-02-19T06:34:56.589Z,1.30
2023-02-19T06:39:59.322Z,2.40
2023-02-19T06:45:02.090Z,2.00
2023-02-19T06:50:05.188Z,1.80
2023-02-19T06:55:09.280Z,2.40
2023-02-19T07:00:12.391Z,2.00
2023-02-19T07:05:15.161Z,2.40
2023-02-19T07:10:18.045Z,2.20
2023-02-19T07:15:20.776Z,2.10
2023-02-19T07:20:23.583Z,2.60
2023-02-19T07:25:26.581Z,2.10
2023-02-19T07:30:29.576Z,2.20
2023-02-19T07:35:33.074Z,2.20
2023-02-19T07:40:37.012Z,2.00
2023-02-19T07:45:39.775Z,3.20
2023-02-19T07:50:42.658Z,3.90
2023-02-19T07:55:46.058Z,2.60
2023-02-19T08:00:48.863Z,4.40
2023-02-19T08:05:53.861Z,3.50
2023-02-19T08:11:19.063Z,4.30
2023-02-19T08:16:33.475Z,2.90
2023-02-19T08:21:44.406Z,2.60
2023-02-19T08:26:47.723Z,2.70
2023-02-19T08:31:50.680Z,2.50
2023-02-19T08:36:53.583Z,2.40
2023-02-19T08:41:57.742Z,4.90
2023-02-19T08:47:00.473Z,3.30
2023-02-19T08:52:03.254Z,3.50
2023-02-19T08:57:07.411Z,2.90
2023-02-19T09:02:10.574Z,2.30
2023-02-19T09:07:13.509Z,2.40
2023-02-19T09:12:18.727Z,2.80
2023-02-19T09:17:22.656Z,1.80
2023-02-19T09:22:26.757Z,2.40
2023-02-19T09:27:32.302Z,2.30
2023-02-19T09:32:35.064Z,2.30
2023-02-19T09:37:40.569Z,1.80
2023-02-19T09:42:43.757Z,1.80
2023-02-19T09:47:47.412Z,2.90
2023-02-19T09:52:56.449Z,3.30
2023-02-19T09:58:02.362Z,2.90
2023-02-19T10:03:14.893Z,1.70
2023-02-19T10:08:21.703Z,1.70
2023-02-19T10:18:43.944Z,1.70
2023-02-19T10:23:51.501Z,1.90
2023-02-19T10:28:55.557Z,1.60
2023-02-19T10:34:02.096Z,1.70
2023-02-19T10:39:22.313Z,2.00
2023-02-19T10:49:37.418Z,1.70
2023-02-19T10:54:40.972Z,1.90
2023-02-19T10:59:53.282Z,2.60
2023-02-19T11:05:04.131Z,1.90
2023-02-19T11:10:22.082Z,2.20
2023-02-19T11:15:50.037Z,2.00
2023-02-19T11:21:02.921Z,1.70
2023-02-19T11:26:21.862Z,1.40
2023-02-19T11:31:33.225Z,2.20
2023-02-19T11:36:37.782Z,1.90
2023-02-19T11:42:22.476Z,1.80
2023-02-19T11:47:48.925Z,1.90
2023-02-19T11:53:16.812Z,1.40
2023-02-19T11:58:48.869Z,1.20
2023-02-19T12:04:26.131Z,1.30
2023-02-19T12:09:29.077Z,1.60
2023-02-19T12:15:24.324Z,1.50
2023-02-19T12:20:52.778Z,1.80
2023-02-19T12:26:10.619Z,1.40
2023-02-19T12:31:49.657Z,1.60
2023-02-19T12:37:23.296Z,2.00
2023-02-19T12:43:03.301Z,1.30
2023-02-19T12:48:30.287Z,1.50
2023-02-19T12:53:36.101Z,1.90
2023-02-19T12:58:45.609Z,1.60
2023-02-19T13:03:54.039Z,1.30
2023-02-19T13:09:06.841Z,1.30
2023-02-19T13:14:50.015Z,1.50
2023-02-19T13:20:00.552Z,1.50
2023-02-19T13:25:04.858Z,2.00
2023-02-19T13:30:08.319Z,1.50
2023-02-19T13:35:32.869Z,1.60
2023-02-19T13:40:39.525Z,2.20
2023-02-19T13:45:46.139Z,1.80
2023-02-19T13:50:49.275Z,1.90
2023-02-19T13:55:53.089Z,1.30
2023-02-19T14:01:01.508Z,1.60
2023-02-19T14:06:12.364Z,1.80
2023-02-19T14:11:19.844Z,1.90
2023-02-19T14:16:30.546Z,1.20
2023-02-19T14:21:39.067Z,1.80
2023-02-19T14:26:43.343Z,1.70
2023-02-19T14:31:47.249Z,2.90
2023-02-19T14:37:01.711Z,3.20
2023-02-19T14:42:33.490Z,3.20
2023-02-19T14:47:37.500Z,2.50
2023-02-19T14:52:46.725Z,2.10
2023-02-19T14:57:52.873Z,2.40
2023-02-19T15:02:58.657Z,1.60
2023-02-19T15:08:07.716Z,2.20
2023-02-19T15:13:17.867Z,2.10
2023-02-19T15:18:24.298Z,2.00
2023-02-19T15:23:30.500Z,1.90
2023-02-19T15:28:34.624Z,2.10
2023-02-19T15:33:50.927Z,1.10
2023-02-19T15:38:57.449Z,1.50
2023-02-19T15:44:12.960Z,1.70
2023-02-19T15:49:23.848Z,1.50
2023-02-19T15:54:53.137Z,2.30
2023-02-19T16:00:12.120Z,1.90
2023-02-19T16:05:28.922Z,2.40
2023-02-19T16:10:32.635Z,2.20
2023-02-19T16:15:36.073Z,2.30
2023-02-19T16:20:38.914Z,3.20
2023-02-19T16:25:45.294Z,2.80
2023-02-19T16:31:01.431Z,2.70
2023-02-19T16:36:35.873Z,2.70
2023-02-19T16:42:04.492Z,1.70
2023-02-19T16:47:34.684Z,1.70
2023-02-19T16:52:50.814Z,1.60
2023-02-19T16:57:53.976Z,1.90
2023-02-19T17:03:03.004Z,2.00
2023-02-19T17:08:24.114Z,2.70
2023-02-19T17:13:29.677Z,2.10
2023-02-19T17:18:33.072Z,1.40
2023-02-19T17:23:37.238Z,2.00
2023-02-19T17:28:41.448Z,1.70
2023-02-19T17:33:44.852Z,1.60
2023-02-19T17:38:49.178Z,1.80
2023-02-19T17:43:54.132Z,1.50
2023-02-19T17:48:57.022Z,1.20
2023-02-19T17:54:00.138Z,1.20
2023-02-19T17:59:03.847Z,1.10
2023-02-19T18:04:06.853Z,1.30
2023-02-19T18:09:12.556Z,0.70
2023-02-19T18:14:15.506Z,1.70
2023-02-19T18:19:18.974Z,1.60
2023-02-19T18:24:21.816Z,1.40
2023-02-19T18:29:26.121Z,1.30
2023-02-19T18:34:28.941Z,1.10
2023-02-19T18:39:33.226Z,1.30
2023-02-19T18:44:36.537Z,0.90
2023-02-19T18:49:39.612Z,1.30
2023-02-19T18:54:43.378Z,1.20
2023-02-19T18:59:47.301Z,2.10
2023-02-19T19:04:52.587Z,1.90
2023-02-19T19:09:55.513Z,1.70
2023-02-19T19:14:58.301Z,1.50
2023-02-19T19:20:01.163Z,1.50
2023-02-19T19:25:04.402Z,1.50
2023-02-19T19:30:08.169Z,1.50
2023-02-19T19:35:11.422Z,1.40
2023-02-19T19:40:16.220Z,1.30
2023-02-19T19:45:21.115Z,1.20
2023-02-19T19:50:23.956Z,1.50
2023-02-19T19:55:26.826Z,1.80
2023-02-19T20:00:30.741Z,1.70
2023-02-19T20:05:33.661Z,1.70
2023-02-19T20:10:36.458Z,2.40
2023-02-19T20:15:39.365Z,1.80
2023-02-19T20:20:42.257Z,2.10
2023-02-19T20:25:45.110Z,1.90
2023-02-19T20:30:47.971Z,1.90
2023-02-19T20:35:50.851Z,1.70
2023-02-19T20:40:54.750Z,2.10
2023-02-19T20:45:57.922Z,1.70
2023-02-19T20:51:01.192Z,1.50
2023-02-19T20:56:06.242Z,1.60
2023-02-19T21:01:09.371Z,1.70
2023-02-19T21:06:12.645Z,2.00
2023-02-19T21:11:15.904Z,1.40
2023-02-19T21:16:18.752Z,2.10
2023-02-19T21:21:25.331Z,1.90
2023-02-19T21:26:36.836Z,2.20
2023-02-19T21:31:45.014Z,2.90
2023-02-19T21:36:48.174Z,2.20
2023-02-19T21:41:51.216Z,2.60
2023-02-19T21:46:54.068Z,3.40
2023-02-19T21:51:57.184Z,2.70
2023-02-19T21:57:02.796Z,3.20
2023-02-19T22:02:05.637Z,3.40
2023-02-19T22:07:10.685Z,2.70
2023-02-19T22:12:13.579Z,1.70
2023-02-19T22:17:16.445Z,2.40
2023-02-19T22:22:19.294Z,2.50
2023-02-19T22:27:22.420Z,2.50
2023-02-19T22:32:25.438Z,2.60
2023-02-19T22:37:29.804Z,1.70
2023-02-19T22:42:35.018Z,2.20
2023-02-19T22:47:40.140Z,1.90
2023-02-19T22:52:42.975Z,2.10
2023-02-19T22:57:45.903Z,2.00
2023-02-19T23:02:49.337Z,2.20
2023-02-19T23:07:52.305Z,2.10
2023-02-19T23:12:55.169Z,2.40
2023-02-19T23:17:58.077Z,2.80
2023-02-19T23:23:00.998Z,1.90
2023-02-19T23:28:04.165Z,2.00
2023-02-19T23:33:06.981Z,1.90
2023-02-19T23:38:09.932Z,1.90
2023-02-19T23:43:13.234Z,2.10
2023-02-19T23:48:16.545Z,2.50
2023-02-19T23:53:19.386Z,1.80
2023-02-19T23:58:29.277Z,2.20
